Terminal Aerodrome Forecast
Issued by NWS

Home | Current Version | Previous Version | Graphics & Text | Print | Product List | Glossary On
Versions: 1 2 3 4 5 6 7 8 9 10 11 12 13 14 15 16 17 18
488
FTUS43 KABR 272320
TAFATY
TAF
KATY 272320Z 2800/2824 03013G19KT P6SM SKC
     FM280200 36006KT P6SM SCT070 BKN150
     FM281400 03006KT P6SM SCT070
     FM282000 06009KT P6SM SCT110=

USA.gov is the U.S. government's official web portal to all federal, state and local government web resources and services.